Time;durP1;ratioP1;P1;durP2;ratioP2;P2;SDS_P1;SDS_P2;PMS_P1;PMS_P2;Temp;Humidity;BMP_temperature;BMP_pressure;BME280_temperature;BME280_humidity;BME280_pressure;Samples;Min_cycle;Max_cycle;Signal;HPM_P1;HPM_P2
2021/11/10 00:01:38;;;;;;;10.38;7.22;;;;;;;;;;5066540;28;20029;-78
2021/11/10 00:04:04;;;;;;;9.35;7.75;;;;;;;;;;5058292;28;20029;-76
2021/11/10 00:06:29;;;;;;;10.35;7.78;;;;;;;;;;5060928;28;20587;-74
2021/11/10 00:08:55;;;;;;;14.38;8.93;;;;;;;;;;5054619;28;20036;-77
2021/11/10 00:11:20;;;;;;;10.45;8.15;;;;;;;;;;5052219;28;20136;-77
2021/11/10 00:13:45;;;;;;;14.20;8.93;;;;;;;;;;5047593;28;20037;-78
2021/11/10 00:16:10;;;;;;;13.52;9.02;;;;;;;;;;5051631;28;20036;-76
2021/11/10 00:18:36;;;;;;;10.00;8.75;;;;;;;;;;5059970;28;20029;-77
2021/11/10 00:21:02;;;;;;;12.27;8.95;;;;;;;;;;5051190;28;20045;-76
2021/11/10 00:23:27;;;;;;;21.03;11.10;;;;;;;;;;5060440;28;20075;-76
2021/11/10 00:25:52;;;;;;;12.15;8.73;;;;;;;;;;5055227;28;20033;-76
2021/11/10 00:28:17;;;;;;;10.90;8.40;;;;;;;;;;5074778;28;20489;-77
2021/11/10 00:30:43;;;;;;;12.25;8.45;;;;;;;;;;5080797;28;20047;-77
2021/11/10 00:33:08;;;;;;;13.40;9.07;;;;;;;;;;5092757;28;20471;-77
2021/11/10 00:35:33;;;;;;;12.60;8.77;;;;;;;;;;5102361;28;20141;-76
2021/11/10 00:37:59;;;;;;;10.82;7.80;;;;;;;;;;5077221;28;20473;-77
2021/11/10 00:40:24;;;;;;;12.20;8.20;;;;;;;;;;5095660;28;20038;-77
2021/11/10 00:42:49;;;;;;;11.20;8.52;;;;;;;;;;5090558;28;20043;-76
2021/11/10 00:45:14;;;;;;;14.77;8.90;;;;;;;;;;5085339;28;20487;-77
2021/11/10 00:47:39;;;;;;;9.35;7.75;;;;;;;;;;5085718;28;20028;-75
2021/11/10 00:50:05;;;;;;;12.35;8.30;;;;;;;;;;5096828;28;20026;-76
2021/11/10 00:52:30;;;;;;;13.38;9.15;;;;;;;;;;5080148;28;20066;-76
2021/11/10 00:54:56;;;;;;;12.88;9.30;;;;;;;;;;5084879;28;20066;-77
2021/11/10 00:57:21;;;;;;;12.45;8.90;;;;;;;;;;5076301;28;20021;-77
2021/11/10 00:59:46;;;;;;;14.00;10.00;;;;;;;;;;5085946;28;20020;-76
2021/11/10 01:02:12;;;;;;;14.50;10.80;;;;;;;;;;5088832;28;20032;-76
2021/11/10 01:04:37;;;;;;;11.32;8.50;;;;;;;;;;5079049;28;20032;-75
2021/11/10 01:07:03;;;;;;;11.70;8.35;;;;;;;;;;5103990;28;20379;-75
2021/11/10 01:09:29;;;;;;;11.53;8.47;;;;;;;;;;5085071;28;20438;-78
2021/11/10 01:11:54;;;;;;;13.85;9.70;;;;;;;;;;5093967;28;20391;-78
2021/11/10 01:14:20;;;;;;;11.45;8.60;;;;;;;;;;5072292;28;20032;-78
2021/11/10 01:16:46;;;;;;;13.13;9.07;;;;;;;;;;5092755;28;20103;-78
2021/11/10 01:19:11;;;;;;;12.68;9.85;;;;;;;;;;5075742;28;20036;-78
2021/11/10 01:21:36;;;;;;;11.50;9.00;;;;;;;;;;5088648;28;20020;-77
2021/11/10 01:24:02;;;;;;;13.38;9.25;;;;;;;;;;5092467;28;20050;-76
2021/11/10 01:26:27;;;;;;;12.15;8.75;;;;;;;;;;5083351;28;20035;-78
2021/11/10 01:28:53;;;;;;;11.73;9.30;;;;;;;;;;5092048;28;20038;-77
2021/11/10 01:31:18;;;;;;;12.23;8.68;;;;;;;;;;5066399;28;20028;-77
2021/11/10 01:33:43;;;;;;;11.48;8.68;;;;;;;;;;5095114;28;20092;-78
2021/11/10 01:36:09;;;;;;;12.70;9.40;;;;;;;;;;5091325;28;20032;-78
2021/11/10 01:38:34;;;;;;;13.13;10.18;;;;;;;;;;5077084;28;20448;-78
2021/11/10 01:40:59;;;;;;;13.93;9.38;;;;;;;;;;5086554;28;20397;-78
2021/11/10 01:43:24;;;;;;;14.20;9.95;;;;;;;;;;5091231;28;20031;-78
2021/11/10 01:45:54;;;;;;;11.37;8.37;;;;;;;;;;5106710;28;20486;-77
2021/11/10 01:48:19;;;;;;;13.50;8.63;;;;;;;;;;5096533;28;20122;-80
2021/11/10 01:50:44;;;;;;;13.23;9.70;;;;;;;;;;5092134;28;20116;-80
2021/11/10 01:53:09;;;;;;;11.85;9.10;;;;;;;;;;5076134;28;20081;-76
2021/11/10 01:55:35;;;;;;;12.57;9.50;;;;;;;;;;5095938;28;20032;-78
2021/11/10 01:58:01;;;;;;;11.30;8.70;;;;;;;;;;5089347;28;20069;-77
2021/11/10 02:00:28;;;;;;;10.27;8.63;;;;;;;;;;5080044;28;20123;-78
2021/11/10 02:02:54;;;;;;;13.63;10.43;;;;;;;;;;5090738;28;20030;-77
2021/11/10 02:05:20;;;;;;;13.90;9.83;;;;;;;;;;5095956;28;20031;-75
2021/11/10 02:07:46;;;;;;;13.70;9.27;;;;;;;;;;5091134;28;20114;-77
2021/11/10 02:10:13;;;;;;;15.17;9.20;;;;;;;;;;5090103;28;20059;-77
2021/11/10 02:12:39;;;;;;;11.23;8.83;;;;;;;;;;5094696;28;20503;-77
2021/11/10 02:15:06;;;;;;;10.70;8.23;;;;;;;;;;5090798;28;20016;-77
2021/11/10 02:17:32;;;;;;;11.63;7.87;;;;;;;;;;5091038;28;20028;-77
2021/11/10 02:19:57;;;;;;;10.63;7.40;;;;;;;;;;5078060;28;20475;-77
2021/11/10 02:22:23;;;;;;;9.93;7.70;;;;;;;;;;5072706;28;20028;-77
2021/11/10 02:24:48;;;;;;;10.97;7.47;;;;;;;;;;5093704;28;20034;-77
2021/11/10 02:27:19;;;;;;;12.17;8.03;;;;;;;;;;5086490;28;20454;-77
2021/11/10 02:29:45;;;;;;;10.23;8.07;;;;;;;;;;5090686;28;20037;-77
2021/11/10 02:32:12;;;;;;;11.63;8.10;;;;;;;;;;5086672;28;20020;-78
2021/11/10 02:34:41;;;;;;;13.00;8.57;;;;;;;;;;5095402;28;20112;-78
2021/11/10 02:37:06;;;;;;;12.37;9.53;;;;;;;;;;5091526;28;20039;-78
2021/11/10 02:39:31;;;;;;;12.23;8.87;;;;;;;;;;5088331;28;20029;-76
2021/11/10 02:41:57;;;;;;;14.73;9.13;;;;;;;;;;5085766;28;20607;-77
2021/11/10 02:44:22;;;;;;;11.10;8.47;;;;;;;;;;5077285;28;20039;-76
2021/11/10 02:46:49;;;;;;;13.73;9.13;;;;;;;;;;5076163;28;20036;-80
2021/11/10 02:49:14;;;;;;;12.40;8.20;;;;;;;;;;5106634;28;20379;-78
2021/11/10 02:51:57;;;;;;;11.00;8.13;;;;;;;;;;5090711;28;20028;-77
2021/11/10 02:54:24;;;;;;;11.60;9.07;;;;;;;;;;5079939;28;20055;-79
2021/11/10 02:56:49;;;;;;;13.20;9.07;;;;;;;;;;5088379;28;20404;-74
2021/11/10 02:59:14;;;;;;;11.77;9.17;;;;;;;;;;5090725;28;20024;-77
2021/11/10 03:01:40;;;;;;;11.97;9.13;;;;;;;;;;5070689;28;20103;-77
2021/11/10 03:04:16;;;;;;;14.07;8.70;;;;;;;;;;5085732;28;20469;-77
2021/11/10 03:06:41;;;;;;;12.90;8.57;;;;;;;;;;5094657;28;20035;-77
2021/11/10 03:09:07;;;;;;;15.23;9.47;;;;;;;;;;5100010;28;20028;-77
2021/11/10 03:11:32;;;;;;;12.83;8.77;;;;;;;;;;5091732;28;20032;-77
2021/11/10 03:13:57;;;;;;;13.60;8.97;;;;;;;;;;5089883;28;20028;-78
2021/11/10 03:16:22;;;;;;;13.90;9.23;;;;;;;;;;5090735;28;20043;-78
2021/11/10 03:18:47;;;;;;;14.83;9.20;;;;;;;;;;5076973;28;20046;-79
2021/11/10 03:21:13;;;;;;;12.93;8.57;;;;;;;;;;5104357;28;20536;-75
2021/11/10 03:23:38;;;;;;;13.80;9.33;;;;;;;;;;5073837;28;20020;-78
2021/11/10 03:26:03;;;;;;;12.83;8.60;;;;;;;;;;5088452;28;20028;-78
2021/11/10 03:28:29;;;;;;;15.00;9.43;;;;;;;;;;5077916;28;20603;-78
2021/11/10 03:30:54;;;;;;;16.27;9.83;;;;;;;;;;5098152;28;20490;-76
2021/11/10 03:33:19;;;;;;;15.20;10.20;;;;;;;;;;5100736;28;20031;-78
2021/11/10 03:35:45;;;;;;;17.67;10.00;;;;;;;;;;5091373;28;20027;-78
2021/11/10 03:38:10;;;;;;;14.67;9.83;;;;;;;;;;5109071;28;20028;-78
2021/11/10 03:40:35;;;;;;;15.87;9.50;;;;;;;;;;5099176;28;20024;-77
2021/11/10 03:43:00;;;;;;;14.90;9.53;;;;;;;;;;5096179;28;20089;-78
2021/11/10 03:45:26;;;;;;;15.37;9.93;;;;;;;;;;5091911;28;20024;-77
2021/11/10 03:47:51;;;;;;;17.13;10.03;;;;;;;;;;5096677;28;20031;-78
2021/11/10 03:50:17;;;;;;;17.90;9.30;;;;;;;;;;5093749;28;20047;-78
2021/11/10 03:52:42;;;;;;;16.70;9.33;;;;;;;;;;5081236;28;20614;-78
2021/11/10 03:55:07;;;;;;;15.67;9.53;;;;;;;;;;5084431;28;20076;-77
2021/11/10 03:57:32;;;;;;;16.27;9.20;;;;;;;;;;5093823;28;20032;-76
2021/11/10 03:59:58;;;;;;;14.57;10.37;;;;;;;;;;5073895;28;20118;-78
2021/11/10 04:02:23;;;;;;;14.73;10.07;;;;;;;;;;5114006;27;20024;-77
2021/11/10 04:04:48;;;;;;;12.33;9.13;;;;;;;;;;5090776;28;20028;-78
2021/11/10 04:07:13;;;;;;;16.20;9.67;;;;;;;;;;5108448;28;20032;-76
2021/11/10 04:09:39;;;;;;;16.33;10.40;;;;;;;;;;5086338;28;20094;-76
2021/11/10 04:12:05;;;;;;;14.90;9.50;;;;;;;;;;5097617;28;20020;-74
2021/11/10 04:14:30;;;;;;;13.30;9.33;;;;;;;;;;5094239;28;20020;-76
2021/11/10 04:16:55;;;;;;;15.20;10.20;;;;;;;;;;5092453;28;20027;-77
2021/11/10 04:19:21;;;;;;;14.10;9.50;;;;;;;;;;5093128;28;20085;-77
2021/11/10 04:21:46;;;;;;;15.43;10.37;;;;;;;;;;5075601;28;20077;-77
2021/11/10 04:24:11;;;;;;;16.80;9.33;;;;;;;;;;5090833;28;20024;-77
2021/11/10 04:26:38;;;;;;;14.00;9.97;;;;;;;;;;5088888;28;20044;-77
2021/11/10 04:29:12;;;;;;;16.30;9.93;;;;;;;;;;5093405;28;20024;-79
2021/11/10 04:31:37;;;;;;;16.60;9.83;;;;;;;;;;5072069;28;20020;-78
2021/11/10 04:34:04;;;;;;;17.13;10.50;;;;;;;;;;5090547;28;20350;-78
2021/11/10 04:36:30;;;;;;;18.00;10.93;;;;;;;;;;5092634;28;20446;-78
2021/11/10 04:38:56;;;;;;;17.40;9.63;;;;;;;;;;5096660;27;20111;-78
2021/11/10 04:41:22;;;;;;;14.10;9.93;;;;;;;;;;5092533;28;20626;-78
2021/11/10 04:43:47;;;;;;;18.57;10.53;;;;;;;;;;5096959;28;20492;-78
2021/11/10 04:46:46;;;;;;;13.53;10.17;;;;;;;;;;5095121;28;20104;-78
2021/11/10 04:49:05;;;;;;;16.60;10.97;;;;;;;;;;5082295;28;20113;-78
2021/11/10 04:51:31;;;;;;;13.90;10.47;;;;;;;;;;5074406;28;20374;-76
2021/11/10 04:53:57;;;;;;;15.53;10.40;;;;;;;;;;5079671;28;20105;-75
2021/11/10 04:56:23;;;;;;;13.90;10.20;;;;;;;;;;5084478;28;20032;-76
2021/11/10 04:58:48;;;;;;;14.47;9.80;;;;;;;;;;5091701;28;20028;-78
2021/11/10 05:01:26;;;;;;;14.07;9.60;;;;;;;;;;5080938;28;20032;-77
2021/11/10 05:03:51;;;;;;;14.97;9.93;;;;;;;;;;5089715;28;20028;-75
2021/11/10 05:06:17;;;;;;;15.10;10.00;;;;;;;;;;5081723;28;20035;-76
2021/11/10 05:08:42;;;;;;;14.53;10.07;;;;;;;;;;5075052;28;20036;-74
2021/11/10 05:11:07;;;;;;;12.63;9.53;;;;;;;;;;5092426;28;20028;-76
2021/11/10 05:13:33;;;;;;;14.83;9.07;;;;;;;;;;5105229;28;20119;-76
2021/11/10 05:15:58;;;;;;;15.17;9.33;;;;;;;;;;5091329;28;20020;-76
2021/11/10 05:18:23;;;;;;;12.90;9.23;;;;;;;;;;5097276;28;20045;-75
2021/11/10 05:20:49;;;;;;;11.63;8.60;;;;;;;;;;5091552;28;20027;-74
2021/11/10 05:23:15;;;;;;;13.53;8.77;;;;;;;;;;5073057;28;20035;-76
2021/11/10 05:25:41;;;;;;;11.73;8.33;;;;;;;;;;5085624;28;20023;-75
2021/11/10 05:28:06;;;;;;;11.53;7.90;;;;;;;;;;5091851;28;20044;-77
2021/11/10 05:30:31;;;;;;;10.97;7.90;;;;;;;;;;5096972;28;20040;-77
2021/11/10 05:32:56;;;;;;;11.13;7.70;;;;;;;;;;5090654;28;20119;-75
2021/11/10 05:35:21;;;;;;;11.47;8.27;;;;;;;;;;5091358;28;20024;-74
2021/11/10 05:37:47;;;;;;;11.70;8.03;;;;;;;;;;5074825;28;20036;-77
2021/11/10 05:40:12;;;;;;;16.97;8.53;;;;;;;;;;5088134;28;20032;-76
2021/11/10 05:42:39;;;;;;;10.80;7.97;;;;;;;;;;5076314;28;20031;-76
2021/11/10 05:45:05;;;;;;;12.57;8.70;;;;;;;;;;5091793;28;20157;-81
2021/11/10 05:47:30;;;;;;;11.43;8.20;;;;;;;;;;5075747;28;20060;-79
2021/11/10 05:49:56;;;;;;;11.23;8.77;;;;;;;;;;5073101;28;20106;-79
2021/11/10 05:52:21;;;;;;;15.40;9.40;;;;;;;;;;5061008;28;20027;-78
2021/11/10 05:54:46;;;;;;;15.33;9.60;;;;;;;;;;5090344;28;20024;-78
2021/11/10 05:57:13;;;;;;;16.00;9.70;;;;;;;;;;5087212;28;20467;-79
2021/11/10 05:59:39;;;;;;;16.47;10.03;;;;;;;;;;5096695;28;20059;-78
2021/11/10 06:02:04;;;;;;;14.87;9.70;;;;;;;;;;5085500;28;20499;-75
2021/11/10 06:04:30;;;;;;;14.90;10.17;;;;;;;;;;5082555;28;20141;-77
2021/11/10 06:06:55;;;;;;;13.30;9.43;;;;;;;;;;5077764;28;20020;-77
2021/11/10 06:09:22;;;;;;;15.40;10.63;;;;;;;;;;5081380;28;20019;-78
2021/11/10 06:11:47;;;;;;;13.03;9.13;;;;;;;;;;5091274;28;20028;-78
2021/11/10 06:14:14;;;;;;;11.60;9.00;;;;;;;;;;5111761;28;20085;-78
2021/11/10 06:16:40;;;;;;;11.80;8.40;;;;;;;;;;5092559;28;20048;-78
2021/11/10 06:19:05;;;;;;;12.33;9.50;;;;;;;;;;5071098;28;20484;-77
2021/11/10 06:21:30;;;;;;;14.70;11.13;;;;;;;;;;5071944;28;20516;-76
2021/11/10 06:23:55;;;;;;;16.97;10.47;;;;;;;;;;5069745;28;20115;-78
2021/11/10 06:26:21;;;;;;;17.10;10.57;;;;;;;;;;5073617;28;20021;-78
2021/11/10 06:28:48;;;;;;;15.07;10.67;;;;;;;;;;5080289;28;20050;-77
2021/11/10 06:31:13;;;;;;;14.43;10.43;;;;;;;;;;5073901;28;20016;-78
2021/11/10 06:33:38;;;;;;;14.93;10.23;;;;;;;;;;5082317;28;20031;-79
2021/11/10 06:36:04;;;;;;;17.90;12.63;;;;;;;;;;5089107;28;20086;-78
2021/11/10 06:38:29;;;;;;;15.53;11.37;;;;;;;;;;5059034;28;20483;-78
2021/11/10 06:40:54;;;;;;;15.10;10.97;;;;;;;;;;5091848;28;20023;-78
2021/11/10 06:43:19;;;;;;;15.10;11.47;;;;;;;;;;5090687;28;20024;-78
2021/11/10 06:45:45;;;;;;;16.20;12.13;;;;;;;;;;5084257;28;20023;-75
2021/11/10 06:48:10;;;;;;;15.97;11.20;;;;;;;;;;5090139;28;20016;-78
2021/11/10 06:50:35;;;;;;;14.43;10.50;;;;;;;;;;5090307;28;20020;-77
2021/11/10 06:53:00;;;;;;;14.53;11.17;;;;;;;;;;5077555;28;20008;-78
2021/11/10 06:55:26;;;;;;;14.37;10.03;;;;;;;;;;5088382;28;20052;-77
2021/11/10 06:57:51;;;;;;;12.47;9.33;;;;;;;;;;5087508;28;20387;-78
2021/11/10 07:00:16;;;;;;;12.20;8.70;;;;;;;;;;5068596;28;20369;-78
2021/11/10 07:02:42;;;;;;;12.50;9.33;;;;;;;;;;5071448;28;20049;-79
2021/11/10 07:05:08;;;;;;;14.97;10.47;;;;;;;;;;5072457;28;20472;-78
2021/11/10 07:07:33;;;;;;;14.63;10.07;;;;;;;;;;5073753;28;20110;-78
2021/11/10 07:09:58;;;;;;;14.90;10.10;;;;;;;;;;5084726;28;20081;-78
2021/11/10 07:12:23;;;;;;;16.33;10.33;;;;;;;;;;5092129;28;20058;-78
2021/11/10 07:14:49;;;;;;;13.90;10.10;;;;;;;;;;5091518;28;20024;-78
2021/11/10 07:17:14;;;;;;;13.53;9.77;;;;;;;;;;5083961;28;20019;-78
2021/11/10 07:19:39;;;;;;;13.13;9.40;;;;;;;;;;5075649;28;20056;-78
2021/11/10 07:22:04;;;;;;;14.63;9.30;;;;;;;;;;5080062;28;20032;-78
2021/11/10 07:24:30;;;;;;;13.93;9.70;;;;;;;;;;5079122;28;20558;-78
2021/11/10 07:26:56;;;;;;;16.03;10.03;;;;;;;;;;5086841;28;20052;-78
2021/11/10 07:29:21;;;;;;;15.23;9.87;;;;;;;;;;5097020;28;20037;-78
2021/11/10 07:31:46;;;;;;;19.73;10.80;;;;;;;;;;5069497;28;20035;-78
2021/11/10 07:34:11;;;;;;;17.93;10.80;;;;;;;;;;5069802;28;20464;-76
2021/11/10 07:36:37;;;;;;;21.77;12.00;;;;;;;;;;5072272;28;20071;-78
2021/11/10 07:39:02;;;;;;;22.30;12.73;;;;;;;;;;5080312;28;20063;-78
2021/11/10 07:41:31;;;;;;;18.23;12.23;;;;;;;;;;5078279;28;20138;-78
2021/11/10 07:43:57;;;;;;;19.17;12.37;;;;;;;;;;5077600;28;20016;-77
2021/11/10 07:46:24;;;;;;;20.83;11.43;;;;;;;;;;5080042;28;20031;-76
2021/11/10 07:48:50;;;;;;;14.37;10.37;;;;;;;;;;5084515;28;20138;-77
2021/11/10 07:51:16;;;;;;;19.60;10.57;;;;;;;;;;5083108;28;20021;-76
2021/11/10 07:53:41;;;;;;;14.38;9.13;;;;;;;;;;5069790;28;20128;-75
2021/11/10 07:56:07;;;;;;;15.63;10.60;;;;;;;;;;5070690;28;20104;-77
2021/11/10 07:58:33;;;;;;;14.82;10.10;;;;;;;;;;5077862;28;20017;-77
2021/11/10 08:00:58;;;;;;;17.00;10.27;;;;;;;;;;5072523;28;20031;-77
2021/11/10 08:03:23;;;;;;;15.18;10.38;;;;;;;;;;5077362;28;20035;-77
2021/11/10 08:05:48;;;;;;;13.20;10.73;;;;;;;;;;5074097;28;20016;-77
2021/11/10 08:08:13;;;;;;;13.57;9.77;;;;;;;;;;5081945;28;20055;-77
2021/11/10 08:10:39;;;;;;;17.70;11.43;;;;;;;;;;5091236;28;20027;-77
2021/11/10 08:13:04;;;;;;;17.85;11.57;;;;;;;;;;5087666;28;20025;-77
2021/11/10 08:15:29;;;;;;;16.50;11.73;;;;;;;;;;5073018;28;20032;-78
2021/11/10 08:17:55;;;;;;;21.70;11.85;;;;;;;;;;5073722;28;20089;-77
2021/11/10 08:20:20;;;;;;;19.20;12.32;;;;;;;;;;5118963;27;20547;-76
2021/11/10 08:22:46;;;;;;;20.45;12.18;;;;;;;;;;5077314;28;20020;-76
2021/11/10 08:25:12;;;;;;;18.35;11.85;;;;;;;;;;5086207;28;20601;-76
2021/11/10 08:27:38;;;;;;;19.50;12.30;;;;;;;;;;5072525;28;20135;-76
2021/11/10 08:30:07;;;;;;;23.27;13.25;;;;;;;;;;5082315;28;20031;-75
2021/11/10 08:32:34;;;;;;;20.67;12.45;;;;;;;;;;5093772;28;20028;-75
2021/11/10 08:34:59;;;;;;;19.98;12.45;;;;;;;;;;5093183;28;20031;-76
2021/11/10 08:37:24;;;;;;;20.42;11.63;;;;;;;;;;5084937;28;20027;-76
2021/11/10 08:39:49;;;;;;;19.60;11.85;;;;;;;;;;5091285;28;20020;-76
2021/11/10 08:42:14;;;;;;;19.65;12.00;;;;;;;;;;5072716;28;20397;-76
2021/11/10 08:44:51;;;;;;;18.83;11.73;;;;;;;;;;5072688;28;20028;-76
2021/11/10 08:47:16;;;;;;;19.63;11.45;;;;;;;;;;5073483;28;20032;-76
2021/11/10 08:49:41;;;;;;;19.55;12.35;;;;;;;;;;5077215;28;20395;-76
2021/11/10 08:52:07;;;;;;;17.60;11.98;;;;;;;;;;5077235;28;20042;-76
2021/11/10 08:54:32;;;;;;;19.88;11.13;;;;;;;;;;5082948;28;20012;-76
2021/11/10 08:56:59;;;;;;;21.02;12.38;;;;;;;;;;5074889;28;20024;-76
2021/11/10 08:59:25;;;;;;;17.83;12.15;;;;;;;;;;5079540;28;20078;-76
2021/11/10 09:01:51;;;;;;;20.23;11.90;;;;;;;;;;5080743;28;20012;-76
2021/11/10 09:04:20;;;;;;;18.05;13.02;;;;;;;;;;5077667;28;20468;-77
2021/11/10 09:06:46;;;;;;;19.80;12.88;;;;;;;;;;5087173;28;20024;-75
2021/11/10 09:09:12;;;;;;;17.30;12.23;;;;;;;;;;5082192;28;20469;-73
2021/11/10 09:11:37;;;;;;;17.05;11.30;;;;;;;;;;5117410;27;20069;-76
2021/11/10 09:14:03;;;;;;;17.50;11.82;;;;;;;;;;5081207;28;20410;-75
2021/11/10 09:16:28;;;;;;;19.63;13.23;;;;;;;;;;5087171;28;20466;-76
2021/11/10 09:18:53;;;;;;;21.83;13.15;;;;;;;;;;5081488;28;20032;-76
2021/11/10 09:21:21;;;;;;;18.98;14.05;;;;;;;;;;5074854;28;20024;-76
2021/11/10 09:23:50;;;;;;;18.52;13.18;;;;;;;;;;5068553;28;20031;-76
2021/11/10 09:26:18;;;;;;;18.73;12.10;;;;;;;;;;5075760;28;20373;-76
2021/11/10 09:28:46;;;;;;;17.17;12.85;;;;;;;;;;5072950;28;20029;-77
2021/11/10 09:31:11;;;;;;;19.67;12.43;;;;;;;;;;5073766;28;20052;-77
2021/11/10 09:33:40;;;;;;;17.30;10.40;;;;;;;;;;5085714;28;20497;-77
2021/11/10 09:36:09;;;;;;;14.90;10.13;;;;;;;;;;5090462;28;20020;-76
2021/11/10 09:38:35;;;;;;;12.80;9.23;;;;;;;;;;5086422;28;20308;-81
2021/11/10 09:41:01;;;;;;;12.82;8.43;;;;;;;;;;5106560;28;20023;-76
2021/11/10 09:43:36;;;;;;;11.90;8.07;;;;;;;;;;5089114;28;20020;-75
2021/11/10 09:46:02;;;;;;;13.88;9.20;;;;;;;;;;5073348;28;20013;-76
2021/11/10 09:48:28;;;;;;;12.20;7.90;;;;;;;;;;5070868;28;20484;-76
2021/11/10 09:50:53;;;;;;;13.10;8.02;;;;;;;;;;5089026;28;20050;-76
2021/11/10 09:53:22;;;;;;;9.32;6.82;;;;;;;;;;5087103;28;20102;-76
2021/11/10 09:55:48;;;;;;;9.73;7.00;;;;;;;;;;5093583;28;20041;-76
2021/11/10 09:58:16;;;;;;;9.77;6.45;;;;;;;;;;5080648;28;20025;-75
2021/11/10 10:00:41;;;;;;;6.68;5.43;;;;;;;;;;5070837;28;20139;-75
2021/11/10 10:03:06;;;;;;;9.57;5.30;;;;;;;;;;5078965;28;20095;-76
2021/11/10 10:05:32;;;;;;;7.55;5.20;;;;;;;;;;5074953;28;20031;-75
2021/11/10 10:07:59;;;;;;;9.73;5.78;;;;;;;;;;5075020;28;20028;-76
2021/11/10 10:10:26;;;;;;;8.52;5.72;;;;;;;;;;5091741;28;20024;-76
2021/11/10 10:12:51;;;;;;;9.05;5.97;;;;;;;;;;5078224;28;20131;-76
2021/11/10 10:15:18;;;;;;;9.13;5.40;;;;;;;;;;5071792;28;20048;-75
2021/11/10 10:17:45;;;;;;;8.63;5.45;;;;;;;;;;5070723;28;20023;-77
2021/11/10 10:20:23;;;;;;;11.73;6.22;;;;;;;;;;5078753;28;20469;-76
2021/11/10 10:22:49;;;;;;;8.63;6.32;;;;;;;;;;5070223;28;20027;-76
2021/11/10 10:25:15;;;;;;;10.90;6.07;;;;;;;;;;5086093;28;20020;-76
2021/11/10 10:27:50;;;;;;;9.70;6.32;;;;;;;;;;5078095;28;20040;-76
2021/11/10 10:30:34;;;;;;;9.95;5.93;;;;;;;;;;5080931;28;20515;-77
2021/11/10 10:33:07;;;;;;;13.52;7.18;;;;;;;;;;5090802;28;20099;-76
2021/11/10 10:35:40;;;;;;;10.05;6.22;;;;;;;;;;5090318;28;20112;-78
2021/11/10 10:38:08;;;;;;;12.50;6.90;;;;;;;;;;5089371;28;20020;-75
2021/11/10 10:40:36;;;;;;;10.05;6.45;;;;;;;;;;5085790;28;20016;-76
2021/11/10 10:43:02;;;;;;;11.65;6.65;;;;;;;;;;5079491;28;20463;-75
2021/11/10 10:45:34;;;;;;;10.43;6.80;;;;;;;;;;5089338;28;20020;-77
2021/11/10 10:48:01;;;;;;;10.35;6.60;;;;;;;;;;5081167;28;20032;-75
2021/11/10 10:50:34;;;;;;;8.27;6.72;;;;;;;;;;5089720;28;20034;-75
2021/11/10 10:53:00;;;;;;;9.43;6.53;;;;;;;;;;5082998;28;20020;-76
2021/11/10 10:55:55;;;;;;;11.88;7.63;;;;;;;;;;5089758;28;20073;-75
2021/11/10 10:58:33;;;;;;;11.13;7.28;;;;;;;;;;5067018;28;20385;-75
2021/11/10 11:00:59;;;;;;;9.82;6.93;;;;;;;;;;5107960;28;20023;-76
2021/11/10 11:03:26;;;;;;;11.75;6.97;;;;;;;;;;5087087;28;20081;-76
2021/11/10 11:05:51;;;;;;;12.45;7.65;;;;;;;;;;5090544;28;20031;-75
2021/11/10 11:08:47;;;;;;;9.57;6.95;;;;;;;;;;5090260;28;20024;-76
2021/11/10 11:11:36;;;;;;;;;;;;;;;;;;;;;
2021/11/10 11:14:06;;;;;;;10.52;6.90;;;;;;;;;;5091783;28;20028;-77
2021/11/10 11:16:36;;;;;;;10.40;6.50;;;;;;;;;;5088698;28;20020;-74
2021/11/10 11:19:09;;;;;;;11.77;6.50;;;;;;;;;;5077037;28;20020;-75
2021/11/10 11:21:48;;;;;;;11.13;7.28;;;;;;;;;;5075348;28;20008;-76
2021/11/10 11:24:27;;;;;;;11.00;7.18;;;;;;;;;;5070738;28;20072;-74
2021/11/10 11:26:52;;;;;;;9.25;6.78;;;;;;;;;;5089933;28;20492;-74
2021/11/10 11:29:18;;;;;;;10.70;7.13;;;;;;;;;;5061963;28;20032;-75
2021/11/10 11:31:43;;;;;;;10.82;6.45;;;;;;;;;;5089016;28;20043;-74
2021/11/10 11:34:09;;;;;;;12.75;6.88;;;;;;;;;;5094509;28;20047;-75
2021/11/10 11:36:46;;;;;;;11.18;7.10;;;;;;;;;;5090803;28;20105;-74
2021/11/10 11:39:12;;;;;;;9.63;6.95;;;;;;;;;;5077688;28;20034;-73
2021/11/10 11:41:39;;;;;;;8.98;6.20;;;;;;;;;;5085892;28;20062;-74
2021/11/10 11:44:04;;;;;;;7.30;6.05;;;;;;;;;;5081924;28;20028;-74
2021/11/10 11:46:29;;;;;;;9.20;6.28;;;;;;;;;;5073902;28;20028;-75
2021/11/10 11:48:57;;;;;;;6.63;5.57;;;;;;;;;;5074200;28;20484;-75
2021/11/10 11:51:22;;;;;;;7.25;5.43;;;;;;;;;;5079653;28;20020;-75
2021/11/10 11:53:49;;;;;;;6.68;5.57;;;;;;;;;;5070895;28;20035;-75
2021/11/10 11:56:15;;;;;;;6.45;5.35;;;;;;;;;;5096279;28;20098;-74
2021/11/10 11:58:42;;;;;;;7.55;5.75;;;;;;;;;;5089118;28;20476;-75
2021/11/10 12:01:10;;;;;;;9.35;6.28;;;;;;;;;;5080928;28;20025;-74
2021/11/10 12:03:37;;;;;;;7.20;5.70;;;;;;;;;;5082254;28;20051;-74
2021/11/10 12:06:02;;;;;;;8.05;5.75;;;;;;;;;;5113825;27;20182;-76
2021/11/10 12:08:43;;;;;;;7.38;5.53;;;;;;;;;;5080947;28;20020;-75
2021/11/10 12:11:32;;;;;;;7.40;5.70;;;;;;;;;;5078136;28;20031;-75
2021/11/10 12:14:11;;;;;;;7.97;5.53;;;;;;;;;;5071268;28;20039;-75
2021/11/10 12:16:50;;;;;;;9.15;6.18;;;;;;;;;;5081343;28;20052;-74
2021/11/10 12:19:23;;;;;;;6.88;4.97;;;;;;;;;;5082441;28;20032;-75
2021/11/10 12:22:02;;;;;;;7.43;5.00;;;;;;;;;;5074941;28;20028;-76
2021/11/10 12:24:29;;;;;;;8.93;5.13;;;;;;;;;;5086878;28;20020;-76
2021/11/10 12:27:03;;;;;;;6.82;4.97;;;;;;;;;;5092473;28;20032;-75
2021/11/10 12:29:39;;;;;;;6.55;4.65;;;;;;;;;;5092808;28;20031;-75
2021/11/10 12:32:04;;;;;;;7.40;4.70;;;;;;;;;;5093302;28;20023;-75
2021/11/10 12:34:30;;;;;;;7.68;4.30;;;;;;;;;;5092202;28;20061;-76
2021/11/10 12:36:59;;;;;;;6.13;4.37;;;;;;;;;;5097901;28;20024;-75
2021/11/10 12:39:33;;;;;;;6.00;4.32;;;;;;;;;;5102531;28;20265;-75
2021/11/10 12:41:59;;;;;;;5.75;4.35;;;;;;;;;;5082490;28;20554;-75
2021/11/10 12:44:29;;;;;;;5.45;3.47;;;;;;;;;;5081545;28;20024;-75
2021/11/10 12:46:54;;;;;;;5.90;3.90;;;;;;;;;;5094834;28;20031;-75
2021/11/10 12:49:19;;;;;;;6.63;3.67;;;;;;;;;;5113899;28;20383;-73
2021/11/10 12:51:45;;;;;;;3.28;2.55;;;;;;;;;;5080057;28;20337;-73
2021/11/10 12:54:24;;;;;;;4.93;3.00;;;;;;;;;;5073081;28;20161;-76
2021/11/10 12:56:51;;;;;;;4.18;3.08;;;;;;;;;;5081505;28;20093;-74
2021/11/10 12:59:22;;;;;;;5.78;3.28;;;;;;;;;;5084747;28;20020;-74
2021/11/10 13:01:48;;;;;;;4.60;3.53;;;;;;;;;;5084361;28;20101;-75
2021/11/10 13:04:20;;;;;;;4.07;3.30;;;;;;;;;;5093011;28;20020;-74
2021/11/10 13:06:50;;;;;;;4.07;2.67;;;;;;;;;;5092262;28;20476;-74
2021/11/10 13:09:27;;;;;;;3.55;2.58;;;;;;;;;;5085371;28;20369;-74
2021/11/10 13:11:53;;;;;;;5.95;2.83;;;;;;;;;;5087548;28;20060;-74
2021/11/10 13:14:19;;;;;;;5.18;2.40;;;;;;;;;;5077936;28;20059;-74
2021/11/10 13:17:00;;;;;;;4.88;2.40;;;;;;;;;;5081033;28;20031;-74
2021/11/10 13:19:41;;;;;;;3.30;2.45;;;;;;;;;;5087802;28;20031;-74
2021/11/10 13:22:07;;;;;;;3.05;2.28;;;;;;;;;;5087425;28;20050;-73
2021/11/10 13:24:33;;;;;;;2.50;1.90;;;;;;;;;;5077629;28;20020;-74
2021/11/10 13:26:58;;;;;;;3.53;1.60;;;;;;;;;;5089058;28;20058;-75
2021/11/10 13:29:23;;;;;;;3.15;1.70;;;;;;;;;;5091647;28;20028;-74
2021/11/10 13:31:50;;;;;;;2.60;1.63;;;;;;;;;;5093035;28;20028;-75
2021/11/10 13:34:15;;;;;;;4.28;2.38;;;;;;;;;;5088798;28;20016;-74
2021/11/10 13:36:40;;;;;;;3.85;2.00;;;;;;;;;;5078166;28;20747;-75
2021/11/10 13:39:09;;;;;;;3.65;1.83;;;;;;;;;;5078439;28;20028;-75
2021/11/10 13:41:46;;;;;;;2.90;2.33;;;;;;;;;;5082941;28;20024;-77
2021/11/10 13:44:14;;;;;;;3.55;2.20;;;;;;;;;;5092834;28;20063;-74
2021/11/10 13:46:41;;;;;;;3.97;2.58;;;;;;;;;;5084769;28;20058;-75
2021/11/10 13:49:17;;;;;;;3.20;2.70;;;;;;;;;;5074983;28;20024;-76
2021/11/10 13:52:08;;;;;;;4.20;2.25;;;;;;;;;;5083429;28;20055;-76
2021/11/10 13:54:36;;;;;;;4.82;2.85;;;;;;;;;;5093092;28;20024;-76
2021/11/10 13:57:05;;;;;;;3.88;2.80;;;;;;;;;;5090992;28;20387;-76
2021/11/10 13:59:34;;;;;;;4.60;2.83;;;;;;;;;;5091119;28;20024;-75
2021/11/10 14:02:01;;;;;;;2.97;2.58;;;;;;;;;;5072772;28;20063;-75
2021/11/10 14:04:28;;;;;;;3.25;2.67;;;;;;;;;;5070750;28;20016;-76
2021/11/10 14:07:10;;;;;;;7.80;3.47;;;;;;;;;;5089700;28;20035;-76
2021/11/10 14:09:37;;;;;;;6.38;2.65;;;;;;;;;;5080938;28;20067;-76
2021/11/10 14:12:41;;;;;;;4.72;2.95;;;;;;;;;;5087837;28;20029;-76
2021/11/10 14:15:09;;;;;;;11.77;4.13;;;;;;;;;;5030722;28;20021;-76
2021/11/10 14:17:47;;;;;;;7.78;3.95;;;;;;;;;;5030937;28;20009;-76
2021/11/10 14:20:18;;;;;;;6.97;3.47;;;;;;;;;;5019842;28;20037;-76
2021/11/10 14:22:54;;;;;;;5.90;4.18;;;;;;;;;;5018869;28;20018;-76
2021/11/10 14:25:20;;;;;;;7.47;3.92;;;;;;;;;;5047067;28;20024;-76
2021/11/10 14:27:46;;;;;;;6.30;4.10;;;;;;;;;;5040680;28;20128;-76
2021/11/10 14:30:17;;;;;;;7.70;4.07;;;;;;;;;;5022497;28;20527;-76
2021/11/10 14:32:43;;;;;;;9.93;4.68;;;;;;;;;;5030344;28;20092;-75